sensor_id;sensor_type;location;lat;lon;timestamp;P1;durP1;ratioP1;P2;durP2;ratioP2
27113;SDS011;14648;49.730;8.614;2022-07-18T00:00:43;2.90;;;2.00;;
27113;SDS011;14648;49.730;8.614;2022-07-18T00:03:08;3.17;;;1.43;;
27113;SDS011;14648;49.730;8.614;2022-07-18T00:05:34;3.53;;;1.30;;
27113;SDS011;14648;49.730;8.614;2022-07-18T00:08:00;3.17;;;1.23;;
27113;SDS011;14648;49.730;8.614;2022-07-18T00:10:26;2.50;;;1.33;;
27113;SDS011;14648;49.730;8.614;2022-07-18T00:12:51;5.80;;;1.40;;
27113;SDS011;14648;49.730;8.614;2022-07-18T00:15:17;3.67;;;1.27;;
27113;SDS011;14648;49.730;8.614;2022-07-18T00:17:43;3.47;;;1.67;;
27113;SDS011;14648;49.730;8.614;2022-07-18T00:20:09;3.63;;;1.27;;
27113;SDS011;14648;49.730;8.614;2022-07-18T00:22:36;5.77;;;1.93;;
27113;SDS011;14648;49.730;8.614;2022-07-18T00:25:02;11.17;;;2.07;;
27113;SDS011;14648;49.730;8.614;2022-07-18T00:27:29;6.20;;;2.03;;
27113;SDS011;14648;49.730;8.614;2022-07-18T00:29:54;8.13;;;2.30;;
27113;SDS011;14648;49.730;8.614;2022-07-18T00:32:20;8.93;;;1.70;;
27113;SDS011;14648;49.730;8.614;2022-07-18T00:34:46;3.90;;;1.93;;
27113;SDS011;14648;49.730;8.614;2022-07-18T00:37:11;2.33;;;1.60;;
27113;SDS011;14648;49.730;8.614;2022-07-18T00:39:37;3.90;;;1.40;;
27113;SDS011;14648;49.730;8.614;2022-07-18T00:42:03;5.23;;;2.10;;
27113;SDS011;14648;49.730;8.614;2022-07-18T00:44:29;6.60;;;1.80;;
27113;SDS011;14648;49.730;8.614;2022-07-18T00:46:55;2.43;;;1.77;;
27113;SDS011;14648;49.730;8.614;2022-07-18T00:49:28;1.60;;;1.27;;
27113;SDS011;14648;49.730;8.614;2022-07-18T00:51:54;3.30;;;1.50;;
27113;SDS011;14648;49.730;8.614;2022-07-18T00:54:21;6.40;;;1.23;;
27113;SDS011;14648;49.730;8.614;2022-07-18T00:56:47;1.33;;;1.10;;
27113;SDS011;14648;49.730;8.614;2022-07-18T00:59:15;1.50;;;1.30;;
27113;SDS011;14648;49.730;8.614;2022-07-18T01:01:42;3.00;;;1.63;;
27113;SDS011;14648;49.730;8.614;2022-07-18T01:04:16;4.40;;;1.60;;
27113;SDS011;14648;49.730;8.614;2022-07-18T01:06:44;1.67;;;1.57;;
27113;SDS011;14648;49.730;8.614;2022-07-18T01:09:12;2.10;;;1.27;;
27113;SDS011;14648;49.730;8.614;2022-07-18T01:11:39;1.83;;;1.47;;
27113;SDS011;14648;49.730;8.614;2022-07-18T01:14:05;5.07;;;1.80;;
27113;SDS011;14648;49.730;8.614;2022-07-18T01:16:33;2.13;;;1.47;;
27113;SDS011;14648;49.730;8.614;2022-07-18T01:18:59;2.60;;;1.43;;
27113;SDS011;14648;49.730;8.614;2022-07-18T01:21:25;3.10;;;1.63;;
27113;SDS011;14648;49.730;8.614;2022-07-18T01:23:51;1.93;;;1.73;;
27113;SDS011;14648;49.730;8.614;2022-07-18T01:26:17;6.20;;;1.73;;
27113;SDS011;14648;49.730;8.614;2022-07-18T01:28:43;3.20;;;1.90;;
27113;SDS011;14648;49.730;8.614;2022-07-18T01:31:10;2.13;;;1.63;;
27113;SDS011;14648;49.730;8.614;2022-07-18T01:33:36;8.13;;;2.50;;
27113;SDS011;14648;49.730;8.614;2022-07-18T01:36:02;2.17;;;1.73;;
27113;SDS011;14648;49.730;8.614;2022-07-18T01:38:30;2.93;;;1.23;;
27113;SDS011;14648;49.730;8.614;2022-07-18T01:41:00;2.57;;;1.73;;
27113;SDS011;14648;49.730;8.614;2022-07-18T01:43:26;1.80;;;1.50;;
27113;SDS011;14648;49.730;8.614;2022-07-18T01:45:53;3.47;;;1.67;;
27113;SDS011;14648;49.730;8.614;2022-07-18T01:48:19;2.93;;;1.30;;
27113;SDS011;14648;49.730;8.614;2022-07-18T01:50:47;3.83;;;1.30;;
27113;SDS011;14648;49.730;8.614;2022-07-18T01:53:14;1.93;;;1.33;;
27113;SDS011;14648;49.730;8.614;2022-07-18T01:55:39;3.23;;;2.33;;
27113;SDS011;14648;49.730;8.614;2022-07-18T01:58:05;2.00;;;1.53;;
27113;SDS011;14648;49.730;8.614;2022-07-18T02:00:31;1.83;;;1.30;;
27113;SDS011;14648;49.730;8.614;2022-07-18T02:02:57;4.30;;;1.30;;
27113;SDS011;14648;49.730;8.614;2022-07-18T02:05:23;2.90;;;1.53;;
27113;SDS011;14648;49.730;8.614;2022-07-18T02:07:48;3.33;;;1.77;;
27113;SDS011;14648;49.730;8.614;2022-07-18T02:10:15;3.37;;;1.37;;
27113;SDS011;14648;49.730;8.614;2022-07-18T02:12:46;3.70;;;1.60;;
27113;SDS011;14648;49.730;8.614;2022-07-18T02:15:13;1.80;;;1.70;;
27113;SDS011;14648;49.730;8.614;2022-07-18T02:17:39;2.77;;;1.63;;
27113;SDS011;14648;49.730;8.614;2022-07-18T02:20:07;8.90;;;2.00;;
27113;SDS011;14648;49.730;8.614;2022-07-18T02:22:35;6.07;;;1.80;;
27113;SDS011;14648;49.730;8.614;2022-07-18T02:25:02;2.80;;;1.50;;
27113;SDS011;14648;49.730;8.614;2022-07-18T02:27:28;4.90;;;1.87;;
27113;SDS011;14648;49.730;8.614;2022-07-18T02:29:54;4.63;;;1.70;;
27113;SDS011;14648;49.730;8.614;2022-07-18T02:32:20;1.60;;;1.50;;
27113;SDS011;14648;49.730;8.614;2022-07-18T02:34:47;2.90;;;1.70;;
27113;SDS011;14648;49.730;8.614;2022-07-18T02:37:12;5.07;;;2.07;;
27113;SDS011;14648;49.730;8.614;2022-07-18T02:39:38;4.73;;;2.20;;
27113;SDS011;14648;49.730;8.614;2022-07-18T02:42:04;4.40;;;2.17;;
27113;SDS011;14648;49.730;8.614;2022-07-18T02:44:30;4.50;;;2.13;;
27113;SDS011;14648;49.730;8.614;2022-07-18T02:46:56;4.50;;;1.80;;
27113;SDS011;14648;49.730;8.614;2022-07-18T02:49:23;2.60;;;2.17;;
27113;SDS011;14648;49.730;8.614;2022-07-18T02:51:59;1.93;;;1.57;;
27113;SDS011;14648;49.730;8.614;2022-07-18T02:54:29;3.13;;;1.53;;
27113;SDS011;14648;49.730;8.614;2022-07-18T02:56:56;2.17;;;1.67;;
27113;SDS011;14648;49.730;8.614;2022-07-18T02:59:23;2.73;;;1.50;;
27113;SDS011;14648;49.730;8.614;2022-07-18T03:01:50;1.80;;;1.40;;
27113;SDS011;14648;49.730;8.614;2022-07-18T03:04:17;2.37;;;1.80;;
27113;SDS011;14648;49.730;8.614;2022-07-18T03:06:45;3.63;;;1.53;;
27113;SDS011;14648;49.730;8.614;2022-07-18T03:09:11;2.07;;;1.50;;
27113;SDS011;14648;49.730;8.614;2022-07-18T03:11:38;3.97;;;2.17;;
27113;SDS011;14648;49.730;8.614;2022-07-18T03:14:04;4.00;;;2.13;;
27113;SDS011;14648;49.730;8.614;2022-07-18T03:16:30;2.13;;;1.93;;
27113;SDS011;14648;49.730;8.614;2022-07-18T03:18:55;3.97;;;1.53;;
27113;SDS011;14648;49.730;8.614;2022-07-18T03:21:21;5.70;;;2.30;;
27113;SDS011;14648;49.730;8.614;2022-07-18T03:23:47;1.60;;;1.23;;
27113;SDS011;14648;49.730;8.614;2022-07-18T03:26:13;3.53;;;1.30;;
27113;SDS011;14648;49.730;8.614;2022-07-18T03:28:38;1.87;;;1.40;;
27113;SDS011;14648;49.730;8.614;2022-07-18T03:31:04;2.43;;;1.50;;
27113;SDS011;14648;49.730;8.614;2022-07-18T03:33:30;3.83;;;1.30;;
27113;SDS011;14648;49.730;8.614;2022-07-18T03:35:56;1.77;;;1.50;;
27113;SDS011;14648;49.730;8.614;2022-07-18T03:38:22;2.70;;;1.67;;
27113;SDS011;14648;49.730;8.614;2022-07-18T03:40:48;4.50;;;1.90;;
27113;SDS011;14648;49.730;8.614;2022-07-18T03:43:14;7.60;;;1.60;;
27113;SDS011;14648;49.730;8.614;2022-07-18T03:45:39;3.63;;;1.53;;
27113;SDS011;14648;49.730;8.614;2022-07-18T03:48:05;1.30;;;1.20;;
27113;SDS011;14648;49.730;8.614;2022-07-18T03:50:31;1.80;;;1.30;;
27113;SDS011;14648;49.730;8.614;2022-07-18T03:52:58;1.80;;;1.70;;
27113;SDS011;14648;49.730;8.614;2022-07-18T03:55:25;2.37;;;1.30;;
27113;SDS011;14648;49.730;8.614;2022-07-18T03:57:50;1.83;;;1.57;;
27113;SDS011;14648;49.730;8.614;2022-07-18T04:00:16;2.47;;;1.43;;
27113;SDS011;14648;49.730;8.614;2022-07-18T04:02:43;1.97;;;1.40;;
27113;SDS011;14648;49.730;8.614;2022-07-18T04:05:11;3.23;;;1.40;;
27113;SDS011;14648;49.730;8.614;2022-07-18T04:07:38;2.30;;;1.50;;
27113;SDS011;14648;49.730;8.614;2022-07-18T04:10:06;2.20;;;1.40;;
27113;SDS011;14648;49.730;8.614;2022-07-18T04:12:34;2.20;;;1.53;;
27113;SDS011;14648;49.730;8.614;2022-07-18T04:14:59;8.67;;;1.70;;
27113;SDS011;14648;49.730;8.614;2022-07-18T04:17:25;3.10;;;1.80;;
27113;SDS011;14648;49.730;8.614;2022-07-18T04:19:52;3.13;;;1.93;;
27113;SDS011;14648;49.730;8.614;2022-07-18T04:22:18;5.03;;;1.93;;
27113;SDS011;14648;49.730;8.614;2022-07-18T04:24:44;3.30;;;2.00;;
27113;SDS011;14648;49.730;8.614;2022-07-18T04:27:10;3.03;;;1.67;;
27113;SDS011;14648;49.730;8.614;2022-07-18T04:29:37;5.70;;;1.77;;
27113;SDS011;14648;49.730;8.614;2022-07-18T04:32:03;2.40;;;1.53;;
27113;SDS011;14648;49.730;8.614;2022-07-18T04:34:30;2.47;;;1.50;;
27113;SDS011;14648;49.730;8.614;2022-07-18T04:36:56;1.90;;;1.70;;
27113;SDS011;14648;49.730;8.614;2022-07-18T04:39:21;2.97;;;1.80;;
27113;SDS011;14648;49.730;8.614;2022-07-18T04:41:47;9.47;;;2.20;;
27113;SDS011;14648;49.730;8.614;2022-07-18T04:44:13;8.10;;;2.13;;
27113;SDS011;14648;49.730;8.614;2022-07-18T04:46:39;1.90;;;1.67;;
27113;SDS011;14648;49.730;8.614;2022-07-18T04:49:04;6.93;;;1.97;;
27113;SDS011;14648;49.730;8.614;2022-07-18T04:51:30;8.13;;;1.90;;
27113;SDS011;14648;49.730;8.614;2022-07-18T04:53:57;7.07;;;2.67;;
27113;SDS011;14648;49.730;8.614;2022-07-18T04:56:23;4.30;;;2.27;;
27113;SDS011;14648;49.730;8.614;2022-07-18T04:58:49;5.07;;;2.23;;
27113;SDS011;14648;49.730;8.614;2022-07-18T05:01:14;2.23;;;1.67;;
27113;SDS011;14648;49.730;8.614;2022-07-18T05:03:40;3.00;;;2.17;;
27113;SDS011;14648;49.730;8.614;2022-07-18T05:06:06;5.60;;;1.87;;
27113;SDS011;14648;49.730;8.614;2022-07-18T05:08:31;6.47;;;2.07;;
27113;SDS011;14648;49.730;8.614;2022-07-18T05:10:57;2.80;;;1.70;;
27113;SDS011;14648;49.730;8.614;2022-07-18T05:13:23;4.80;;;2.80;;
27113;SDS011;14648;49.730;8.614;2022-07-18T05:15:49;5.30;;;1.90;;
27113;SDS011;14648;49.730;8.614;2022-07-18T05:18:15;3.80;;;2.10;;
27113;SDS011;14648;49.730;8.614;2022-07-18T05:20:41;4.23;;;2.17;;
27113;SDS011;14648;49.730;8.614;2022-07-18T05:23:07;2.30;;;1.70;;
27113;SDS011;14648;49.730;8.614;2022-07-18T05:25:32;7.83;;;2.20;;
27113;SDS011;14648;49.730;8.614;2022-07-18T05:27:58;6.73;;;1.97;;
27113;SDS011;14648;49.730;8.614;2022-07-18T05:30:24;3.33;;;2.83;;
27113;SDS011;14648;49.730;8.614;2022-07-18T05:32:50;8.30;;;2.43;;
27113;SDS011;14648;49.730;8.614;2022-07-18T05:35:17;3.63;;;2.37;;
27113;SDS011;14648;49.730;8.614;2022-07-18T05:37:43;6.60;;;2.10;;
27113;SDS011;14648;49.730;8.614;2022-07-18T05:40:10;5.40;;;3.80;;
27113;SDS011;14648;49.730;8.614;2022-07-18T05:42:38;1.90;;;1.70;;
27113;SDS011;14648;49.730;8.614;2022-07-18T05:45:04;4.60;;;2.30;;
27113;SDS011;14648;49.730;8.614;2022-07-18T05:47:31;4.70;;;2.90;;
27113;SDS011;14648;49.730;8.614;2022-07-18T05:49:56;11.87;;;3.07;;
27113;SDS011;14648;49.730;8.614;2022-07-18T05:52:22;4.50;;;2.07;;
27113;SDS011;14648;49.730;8.614;2022-07-18T05:54:48;5.33;;;2.73;;
27113;SDS011;14648;49.730;8.614;2022-07-18T05:57:14;5.80;;;2.00;;
27113;SDS011;14648;49.730;8.614;2022-07-18T05:59:40;4.17;;;2.00;;
27113;SDS011;14648;49.730;8.614;2022-07-18T06:02:05;6.20;;;2.73;;
27113;SDS011;14648;49.730;8.614;2022-07-18T06:04:31;5.60;;;2.17;;
27113;SDS011;14648;49.730;8.614;2022-07-18T06:06:57;7.70;;;2.07;;
27113;SDS011;14648;49.730;8.614;2022-07-18T06:09:23;6.23;;;2.40;;
27113;SDS011;14648;49.730;8.614;2022-07-18T06:11:48;5.47;;;2.23;;
27113;SDS011;14648;49.730;8.614;2022-07-18T06:14:14;3.23;;;2.03;;
27113;SDS011;14648;49.730;8.614;2022-07-18T06:16:40;1.97;;;1.83;;
27113;SDS011;14648;49.730;8.614;2022-07-18T06:19:06;8.27;;;2.10;;
27113;SDS011;14648;49.730;8.614;2022-07-18T06:21:32;4.57;;;2.30;;
27113;SDS011;14648;49.730;8.614;2022-07-18T06:23:58;4.00;;;2.50;;
27113;SDS011;14648;49.730;8.614;2022-07-18T06:26:23;8.10;;;2.40;;
27113;SDS011;14648;49.730;8.614;2022-07-18T06:28:49;3.30;;;2.10;;
27113;SDS011;14648;49.730;8.614;2022-07-18T06:31:15;5.70;;;2.40;;
27113;SDS011;14648;49.730;8.614;2022-07-18T06:33:41;4.73;;;2.50;;
27113;SDS011;14648;49.730;8.614;2022-07-18T06:36:07;8.53;;;2.13;;
27113;SDS011;14648;49.730;8.614;2022-07-18T06:38:33;4.10;;;1.90;;
27113;SDS011;14648;49.730;8.614;2022-07-18T06:40:59;16.03;;;4.97;;
27113;SDS011;14648;49.730;8.614;2022-07-18T06:43:25;8.63;;;2.77;;
27113;SDS011;14648;49.730;8.614;2022-07-18T06:45:50;14.40;;;2.50;;
27113;SDS011;14648;49.730;8.614;2022-07-18T06:48:17;8.60;;;3.13;;
27113;SDS011;14648;49.730;8.614;2022-07-18T06:50:43;4.53;;;2.10;;
27113;SDS011;14648;49.730;8.614;2022-07-18T06:53:09;5.10;;;2.23;;
27113;SDS011;14648;49.730;8.614;2022-07-18T06:55:35;7.70;;;2.30;;
27113;SDS011;14648;49.730;8.614;2022-07-18T06:58:01;10.77;;;2.30;;
27113;SDS011;14648;49.730;8.614;2022-07-18T07:00:27;7.20;;;2.40;;
27113;SDS011;14648;49.730;8.614;2022-07-18T07:02:53;3.70;;;2.10;;
27113;SDS011;14648;49.730;8.614;2022-07-18T07:05:19;4.83;;;1.63;;
27113;SDS011;14648;49.730;8.614;2022-07-18T07:07:46;5.17;;;2.33;;
27113;SDS011;14648;49.730;8.614;2022-07-18T07:10:12;4.57;;;1.47;;
27113;SDS011;14648;49.730;8.614;2022-07-18T07:12:40;6.13;;;1.87;;
27113;SDS011;14648;49.730;8.614;2022-07-18T07:15:08;4.80;;;1.70;;
27113;SDS011;14648;49.730;8.614;2022-07-18T07:17:35;3.50;;;2.30;;
27113;SDS011;14648;49.730;8.614;2022-07-18T07:20:02;5.23;;;1.77;;
27113;SDS011;14648;49.730;8.614;2022-07-18T07:22:30;10.50;;;2.40;;
27113;SDS011;14648;49.730;8.614;2022-07-18T07:25:05;5.03;;;1.77;;
27113;SDS011;14648;49.730;8.614;2022-07-18T07:27:31;6.53;;;2.30;;
27113;SDS011;14648;49.730;8.614;2022-07-18T07:29:57;4.20;;;1.87;;
27113;SDS011;14648;49.730;8.614;2022-07-18T07:32:22;6.73;;;1.53;;
27113;SDS011;14648;49.730;8.614;2022-07-18T07:34:48;2.20;;;1.97;;
27113;SDS011;14648;49.730;8.614;2022-07-18T07:37:13;6.13;;;1.80;;
27113;SDS011;14648;49.730;8.614;2022-07-18T07:39:39;13.43;;;1.90;;
27113;SDS011;14648;49.730;8.614;2022-07-18T07:42:05;2.13;;;1.67;;
27113;SDS011;14648;49.730;8.614;2022-07-18T07:44:30;2.97;;;1.50;;
27113;SDS011;14648;49.730;8.614;2022-07-18T07:46:57;4.73;;;1.77;;
27113;SDS011;14648;49.730;8.614;2022-07-18T07:49:24;2.73;;;1.30;;
27113;SDS011;14648;49.730;8.614;2022-07-18T07:51:50;2.83;;;1.77;;
27113;SDS011;14648;49.730;8.614;2022-07-18T07:54:16;4.47;;;1.40;;
27113;SDS011;14648;49.730;8.614;2022-07-18T07:56:42;1.60;;;1.20;;
27113;SDS011;14648;49.730;8.614;2022-07-18T07:59:07;3.20;;;1.00;;
27113;SDS011;14648;49.730;8.614;2022-07-18T08:01:33;6.00;;;1.20;;
27113;SDS011;14648;49.730;8.614;2022-07-18T08:03:59;3.07;;;1.53;;
27113;SDS011;14648;49.730;8.614;2022-07-18T08:06:25;4.03;;;1.30;;
27113;SDS011;14648;49.730;8.614;2022-07-18T08:08:51;2.87;;;1.60;;
27113;SDS011;14648;49.730;8.614;2022-07-18T08:11:17;1.47;;;1.27;;
27113;SDS011;14648;49.730;8.614;2022-07-18T08:13:43;1.40;;;1.30;;
27113;SDS011;14648;49.730;8.614;2022-07-18T08:16:08;12.23;;;1.50;;
27113;SDS011;14648;49.730;8.614;2022-07-18T08:18:34;1.33;;;1.20;;
27113;SDS011;14648;49.730;8.614;2022-07-18T08:21:00;2.50;;;1.40;;
27113;SDS011;14648;49.730;8.614;2022-07-18T08:23:25;3.73;;;1.50;;
27113;SDS011;14648;49.730;8.614;2022-07-18T08:25:51;1.73;;;1.30;;
27113;SDS011;14648;49.730;8.614;2022-07-18T08:28:17;3.37;;;1.87;;
27113;SDS011;14648;49.730;8.614;2022-07-18T08:30:43;6.83;;;1.43;;
27113;SDS011;14648;49.730;8.614;2022-07-18T08:33:09;1.63;;;1.37;;
27113;SDS011;14648;49.730;8.614;2022-07-18T08:35:34;4.20;;;1.25;;
27113;SDS011;14648;49.730;8.614;2022-07-18T08:38:01;1.83;;;1.23;;
27113;SDS011;14648;49.730;8.614;2022-07-18T08:40:28;1.30;;;1.20;;
27113;SDS011;14648;49.730;8.614;2022-07-18T08:42:54;3.72;;;1.15;;
27113;SDS011;14648;49.730;8.614;2022-07-18T08:45:22;2.05;;;1.10;;
27113;SDS011;14648;49.730;8.614;2022-07-18T08:47:50;5.47;;;1.15;;
27113;SDS011;14648;49.730;8.614;2022-07-18T08:50:16;3.53;;;1.20;;
27113;SDS011;14648;49.730;8.614;2022-07-18T08:52:43;3.45;;;1.35;;
27113;SDS011;14648;49.730;8.614;2022-07-18T08:55:10;2.00;;;1.38;;
27113;SDS011;14648;49.730;8.614;2022-07-18T08:57:36;5.97;;;1.17;;
27113;SDS011;14648;49.730;8.614;2022-07-18T09:00:09;5.13;;;1.38;;
27113;SDS011;14648;49.730;8.614;2022-07-18T09:02:36;7.05;;;1.23;;
27113;SDS011;14648;49.730;8.614;2022-07-18T09:05:02;5.85;;;1.45;;
27113;SDS011;14648;49.730;8.614;2022-07-18T09:07:31;4.97;;;1.00;;
27113;SDS011;14648;49.730;8.614;2022-07-18T09:10:02;5.47;;;1.42;;
27113;SDS011;14648;49.730;8.614;2022-07-18T09:12:30;11.25;;;1.42;;
27113;SDS011;14648;49.730;8.614;2022-07-18T09:15:08;5.38;;;1.00;;
27113;SDS011;14648;49.730;8.614;2022-07-18T09:17:40;3.95;;;0.98;;
27113;SDS011;14648;49.730;8.614;2022-07-18T09:20:07;1.30;;;0.98;;
27113;SDS011;14648;49.730;8.614;2022-07-18T09:22:40;3.55;;;1.10;;
27113;SDS011;14648;49.730;8.614;2022-07-18T09:25:10;3.97;;;1.10;;
27113;SDS011;14648;49.730;8.614;2022-07-18T09:27:39;3.25;;;1.10;;
27113;SDS011;14648;49.730;8.614;2022-07-18T09:35:29;3.55;;;1.33;;
27113;SDS011;14648;49.730;8.614;2022-07-18T09:40:37;2.45;;;1.52;;
27113;SDS011;14648;49.730;8.614;2022-07-18T09:43:06;10.77;;;1.10;;
27113;SDS011;14648;49.730;8.614;2022-07-18T09:45:35;5.95;;;1.05;;
27113;SDS011;14648;49.730;8.614;2022-07-18T09:48:08;1.48;;;1.35;;
27113;SDS011;14648;49.730;8.614;2022-07-18T09:55:58;1.60;;;0.90;;
27113;SDS011;14648;49.730;8.614;2022-07-18T09:58:33;2.92;;;1.83;;
27113;SDS011;14648;49.730;8.614;2022-07-18T10:01:20;2.72;;;1.10;;
27113;SDS011;14648;49.730;8.614;2022-07-18T10:03:47;1.10;;;1.00;;
27113;SDS011;14648;49.730;8.614;2022-07-18T10:06:16;1.20;;;1.10;;
27113;SDS011;14648;49.730;8.614;2022-07-18T10:08:46;2.15;;;0.88;;
27113;SDS011;14648;49.730;8.614;2022-07-18T10:11:13;1.00;;;1.00;;
27113;SDS011;14648;49.730;8.614;2022-07-18T10:13:39;0.98;;;0.98;;
27113;SDS011;14648;49.730;8.614;2022-07-18T10:16:05;2.13;;;1.05;;
27113;SDS011;14648;49.730;8.614;2022-07-18T10:18:32;2.35;;;0.90;;
27113;SDS011;14648;49.730;8.614;2022-07-18T10:23:33;1.33;;;1.02;;
27113;SDS011;14648;49.730;8.614;2022-07-18T10:26:10;1.67;;;1.13;;
27113;SDS011;14648;49.730;8.614;2022-07-18T10:31:29;3.15;;;0.90;;
27113;SDS011;14648;49.730;8.614;2022-07-18T10:36:37;8.10;;;2.53;;
27113;SDS011;14648;49.730;8.614;2022-07-18T10:39:16;2.88;;;1.15;;
27113;SDS011;14648;49.730;8.614;2022-07-18T11:00:05;3.90;;;1.33;;
27113;SDS011;14648;49.730;8.614;2022-07-18T11:02:39;1.42;;;1.15;;
27113;SDS011;14648;49.730;8.614;2022-07-18T11:18:26;4.55;;;1.08;;
27113;SDS011;14648;49.730;8.614;2022-07-18T11:20:52;0.80;;;0.80;;
27113;SDS011;14648;49.730;8.614;2022-07-18T11:23:20;1.20;;;1.00;;
27113;SDS011;14648;49.730;8.614;2022-07-18T11:25:50;1.38;;;1.00;;
27113;SDS011;14648;49.730;8.614;2022-07-18T11:28:21;1.63;;;1.08;;
27113;SDS011;14648;49.730;8.614;2022-07-18T11:31:01;3.67;;;0.98;;
27113;SDS011;14648;49.730;8.614;2022-07-18T11:33:44;1.35;;;1.00;;
27113;SDS011;14648;49.730;8.614;2022-07-18T11:36:13;1.30;;;1.20;;
27113;SDS011;14648;49.730;8.614;2022-07-18T11:38:48;1.90;;;1.02;;
27113;SDS011;14648;49.730;8.614;2022-07-18T11:41:17;1.13;;;0.75;;
27113;SDS011;14648;49.730;8.614;2022-07-18T11:43:45;5.85;;;1.52;;
27113;SDS011;14648;49.730;8.614;2022-07-18T11:46:14;2.45;;;1.08;;
27113;SDS011;14648;49.730;8.614;2022-07-18T11:48:44;3.70;;;1.27;;
27113;SDS011;14648;49.730;8.614;2022-07-18T11:51:14;2.60;;;0.98;;
27113;SDS011;14648;49.730;8.614;2022-07-18T11:53:42;2.55;;;0.80;;
27113;SDS011;14648;49.730;8.614;2022-07-18T11:56:13;4.40;;;0.93;;
27113;SDS011;14648;49.730;8.614;2022-07-18T11:58:40;1.55;;;1.45;;
27113;SDS011;14648;49.730;8.614;2022-07-18T12:01:09;2.40;;;1.40;;
27113;SDS011;14648;49.730;8.614;2022-07-18T12:03:36;1.95;;;0.90;;
27113;SDS011;14648;49.730;8.614;2022-07-18T12:06:10;8.18;;;1.45;;
27113;SDS011;14648;49.730;8.614;2022-07-18T12:08:48;1.13;;;1.02;;
27113;SDS011;14648;49.730;8.614;2022-07-18T12:11:17;1.60;;;1.30;;
27113;SDS011;14648;49.730;8.614;2022-07-18T12:19:17;1.55;;;1.45;;
27113;SDS011;14648;49.730;8.614;2022-07-18T12:21:55;1.30;;;1.20;;
27113;SDS011;14648;49.730;8.614;2022-07-18T12:24:32;4.43;;;0.98;;
27113;SDS011;14648;49.730;8.614;2022-07-18T12:27:09;1.05;;;0.95;;
27113;SDS011;14648;49.730;8.614;2022-07-18T12:32:45;2.13;;;1.05;;
27113;SDS011;14648;49.730;8.614;2022-07-18T12:35:17;1.83;;;1.67;;
27113;SDS011;14648;49.730;8.614;2022-07-18T12:37:59;2.78;;;0.90;;
27113;SDS011;14648;49.730;8.614;2022-07-18T12:40:46;2.30;;;1.02;;
27113;SDS011;14648;49.730;8.614;2022-07-18T12:45:59;2.35;;;0.98;;
27113;SDS011;14648;49.730;8.614;2022-07-18T12:48:28;0.90;;;0.90;;
27113;SDS011;14648;49.730;8.614;2022-07-18T12:53:31;1.35;;;1.00;;
27113;SDS011;14648;49.730;8.614;2022-07-18T12:55:59;1.00;;;1.00;;
27113;SDS011;14648;49.730;8.614;2022-07-18T12:58:25;3.00;;;1.05;;
27113;SDS011;14648;49.730;8.614;2022-07-18T13:00:51;3.47;;;1.42;;
27113;SDS011;14648;49.730;8.614;2022-07-18T13:03:17;1.58;;;1.13;;
27113;SDS011;14648;49.730;8.614;2022-07-18T13:05:43;1.35;;;1.13;;
27113;SDS011;14648;49.730;8.614;2022-07-18T13:08:09;4.07;;;1.00;;
27113;SDS011;14648;49.730;8.614;2022-07-18T13:10:37;2.78;;;1.20;;
27113;SDS011;14648;49.730;8.614;2022-07-18T13:13:04;5.28;;;1.00;;
27113;SDS011;14648;49.730;8.614;2022-07-18T13:15:32;2.90;;;1.02;;
27113;SDS011;14648;49.730;8.614;2022-07-18T13:17:58;1.00;;;0.90;;
27113;SDS011;14648;49.730;8.614;2022-07-18T13:20:24;1.00;;;1.00;;
27113;SDS011;14648;49.730;8.614;2022-07-18T13:22:50;1.60;;;1.10;;
27113;SDS011;14648;49.730;8.614;2022-07-18T13:25:17;1.70;;;0.90;;
27113;SDS011;14648;49.730;8.614;2022-07-18T13:27:42;1.33;;;0.90;;
27113;SDS011;14648;49.730;8.614;2022-07-18T13:30:09;3.70;;;1.10;;
27113;SDS011;14648;49.730;8.614;2022-07-18T13:32:35;2.17;;;1.10;;
27113;SDS011;14648;49.730;8.614;2022-07-18T13:35:02;6.90;;;1.15;;
27113;SDS011;14648;49.730;8.614;2022-07-18T13:37:29;0.80;;;0.80;;
27113;SDS011;14648;49.730;8.614;2022-07-18T13:39:55;1.58;;;1.10;;
27113;SDS011;14648;49.730;8.614;2022-07-18T13:42:21;6.45;;;1.00;;
27113;SDS011;14648;49.730;8.614;2022-07-18T13:44:46;3.58;;;0.90;;
27113;SDS011;14648;49.730;8.614;2022-07-18T13:47:12;3.67;;;1.60;;
27113;SDS011;14648;49.730;8.614;2022-07-18T13:49:40;2.05;;;1.00;;
27113;SDS011;14648;49.730;8.614;2022-07-18T13:52:06;2.58;;;1.08;;
27113;SDS011;14648;49.730;8.614;2022-07-18T13:54:33;5.50;;;0.90;;
27113;SDS011;14648;49.730;8.614;2022-07-18T13:56:58;2.30;;;0.98;;
27113;SDS011;14648;49.730;8.614;2022-07-18T13:59:24;1.00;;;0.80;;
27113;SDS011;14648;49.730;8.614;2022-07-18T14:01:50;1.10;;;1.00;;
27113;SDS011;14648;49.730;8.614;2022-07-18T14:04:16;2.60;;;1.13;;
27113;SDS011;14648;49.730;8.614;2022-07-18T14:06:43;1.00;;;0.80;;
27113;SDS011;14648;49.730;8.614;2022-07-18T14:09:10;1.95;;;0.80;;
27113;SDS011;14648;49.730;8.614;2022-07-18T14:11:36;1.17;;;1.08;;
27113;SDS011;14648;49.730;8.614;2022-07-18T14:14:02;0.98;;;0.98;;
27113;SDS011;14648;49.730;8.614;2022-07-18T14:16:29;1.17;;;1.08;;
27113;SDS011;14648;49.730;8.614;2022-07-18T14:18:56;9.57;;;0.88;;
27113;SDS011;14648;49.730;8.614;2022-07-18T14:21:22;2.08;;;0.80;;
27113;SDS011;14648;49.730;8.614;2022-07-18T14:23:48;1.70;;;0.80;;
27113;SDS011;14648;49.730;8.614;2022-07-18T14:26:14;4.57;;;0.90;;
27113;SDS011;14648;49.730;8.614;2022-07-18T14:28:41;5.80;;;1.15;;
27113;SDS011;14648;49.730;8.614;2022-07-18T14:31:07;1.70;;;1.00;;
27113;SDS011;14648;49.730;8.614;2022-07-18T14:33:33;1.25;;;1.15;;
27113;SDS011;14648;49.730;8.614;2022-07-18T14:35:58;5.10;;;1.13;;
27113;SDS011;14648;49.730;8.614;2022-07-18T14:38:24;2.50;;;1.10;;
27113;SDS011;14648;49.730;8.614;2022-07-18T14:40:49;1.23;;;0.90;;
27113;SDS011;14648;49.730;8.614;2022-07-18T14:43:15;4.63;;;1.00;;
27113;SDS011;14648;49.730;8.614;2022-07-18T14:45:41;1.80;;;1.17;;
27113;SDS011;14648;49.730;8.614;2022-07-18T14:48:07;2.40;;;0.98;;
27113;SDS011;14648;49.730;8.614;2022-07-18T14:50:33;2.35;;;0.90;;
27113;SDS011;14648;49.730;8.614;2022-07-18T14:52:59;4.20;;;1.00;;
27113;SDS011;14648;49.730;8.614;2022-07-18T14:55:25;0.90;;;0.90;;
27113;SDS011;14648;49.730;8.614;2022-07-18T14:57:50;3.13;;;1.00;;
27113;SDS011;14648;49.730;8.614;2022-07-18T15:00:16;0.80;;;0.80;;
27113;SDS011;14648;49.730;8.614;2022-07-18T15:02:42;5.03;;;1.30;;
27113;SDS011;14648;49.730;8.614;2022-07-18T15:05:08;3.75;;;0.80;;
27113;SDS011;14648;49.730;8.614;2022-07-18T15:07:34;2.47;;;1.00;;
27113;SDS011;14648;49.730;8.614;2022-07-18T15:10:00;2.05;;;0.90;;
27113;SDS011;14648;49.730;8.614;2022-07-18T15:12:27;3.05;;;0.88;;
27113;SDS011;14648;49.730;8.614;2022-07-18T15:14:53;2.17;;;1.05;;
27113;SDS011;14648;49.730;8.614;2022-07-18T15:17:21;2.92;;;1.20;;
27113;SDS011;14648;49.730;8.614;2022-07-18T15:19:48;2.60;;;0.80;;
27113;SDS011;14648;49.730;8.614;2022-07-18T15:22:14;1.50;;;1.17;;
27113;SDS011;14648;49.730;8.614;2022-07-18T15:24:39;1.10;;;1.00;;
27113;SDS011;14648;49.730;8.614;2022-07-18T15:27:05;3.15;;;1.17;;
27113;SDS011;14648;49.730;8.614;2022-07-18T15:29:32;6.82;;;1.00;;
27113;SDS011;14648;49.730;8.614;2022-07-18T15:31:58;4.00;;;1.15;;
27113;SDS011;14648;49.730;8.614;2022-07-18T15:34:24;3.33;;;0.73;;
27113;SDS011;14648;49.730;8.614;2022-07-18T15:36:50;5.10;;;1.10;;
27113;SDS011;14648;49.730;8.614;2022-07-18T15:39:16;1.27;;;1.15;;
27113;SDS011;14648;49.730;8.614;2022-07-18T15:41:42;4.05;;;1.10;;
27113;SDS011;14648;49.730;8.614;2022-07-18T15:44:08;2.95;;;1.20;;
27113;SDS011;14648;49.730;8.614;2022-07-18T15:46:35;1.27;;;1.17;;
27113;SDS011;14648;49.730;8.614;2022-07-18T15:49:01;2.33;;;1.00;;
27113;SDS011;14648;49.730;8.614;2022-07-18T15:51:28;3.00;;;1.02;;
27113;SDS011;14648;49.730;8.614;2022-07-18T15:53:54;4.85;;;1.20;;